Time;durP1;ratioP1;P1;durP2;ratioP2;P2;SDS_P1;SDS_P2;PMS_P1;PMS_P2;Temp;Humidity;BMP_temperature;BMP_pressure;BME280_temperature;BME280_humidity;BME280_pressure;Samples;Min_cycle;Max_cycle;Signal;HPM_P1;HPM_P2
2022/02/27 00:01:03;;;;;;;4.40;1.52;;;;;;;;;;4975474;28;20043;-62
2022/02/27 00:03:36;;;;;;;6.68;1.85;;;;;;;;;;4991370;28;20062;-62
2022/02/27 00:06:06;;;;;;;6.05;1.70;;;;;;;;;;4991457;28;20065;-62
2022/02/27 00:08:39;;;;;;;3.80;1.58;;;;;;;;;;4971950;28;20179;-62
2022/02/27 00:11:14;;;;;;;9.27;2.45;;;;;;;;;;4987642;28;21242;-62
2022/02/27 00:13:51;;;;;;;3.90;2.15;;;;;;;;;;4940467;28;20057;-62
2022/02/27 00:16:21;;;;;;;7.68;2.33;;;;;;;;;;4971237;28;20066;-62
2022/02/27 00:18:58;;;;;;;6.88;2.40;;;;;;;;;;4991089;28;20054;-62
2022/02/27 00:21:30;;;;;;;4.22;2.10;;;;;;;;;;4990541;28;20050;-62
2022/02/27 00:24:01;;;;;;;5.03;2.03;;;;;;;;;;4990664;28;20054;-62
2022/02/27 00:26:31;;;;;;;4.93;2.03;;;;;;;;;;4974204;28;20053;-62
2022/02/27 00:29:02;;;;;;;9.25;2.22;;;;;;;;;;4990770;28;20058;-62
2022/02/27 00:31:37;;;;;;;8.30;2.70;;;;;;;;;;4990660;28;20054;-62
2022/02/27 00:34:11;;;;;;;6.03;2.20;;;;;;;;;;4974180;28;20090;-62
2022/02/27 00:36:49;;;;;;;5.72;2.03;;;;;;;;;;4990326;28;20414;-62
2022/02/27 00:39:21;;;;;;;4.53;2.50;;;;;;;;;;4974389;28;20102;-62
2022/02/27 00:41:54;;;;;;;5.57;2.70;;;;;;;;;;4990575;28;20058;-62
2022/02/27 00:44:25;;;;;;;6.22;2.72;;;;;;;;;;4935485;29;20062;-62
2022/02/27 00:46:57;;;;;;;5.45;2.80;;;;;;;;;;4951373;29;20059;-62
2022/02/27 00:49:27;;;;;;;10.38;3.20;;;;;;;;;;4951670;28;20063;-62
2022/02/27 00:51:59;;;;;;;4.80;2.72;;;;;;;;;;4948221;29;20052;-62
2022/02/27 00:54:33;;;;;;;5.93;2.88;;;;;;;;;;4932594;29;20594;-62
2022/02/27 00:57:06;;;;;;;5.45;2.88;;;;;;;;;;4913350;28;20046;-62
2022/02/27 00:59:44;;;;;;;10.70;3.10;;;;;;;;;;4938449;28;20047;-62
2022/02/27 01:02:15;;;;;;;6.88;3.00;;;;;;;;;;4970688;28;20574;-62
2022/02/27 01:04:50;;;;;;;5.00;3.35;;;;;;;;;;4951389;29;20059;-62
2022/02/27 01:07:23;;;;;;;6.63;3.50;;;;;;;;;;4935927;29;20055;-62
2022/02/27 01:09:54;;;;;;;6.88;3.17;;;;;;;;;;4912951;29;20052;-62
2022/02/27 01:12:25;;;;;;;11.52;3.50;;;;;;;;;;4894167;29;20056;-62
2022/02/27 01:14:55;;;;;;;8.10;3.30;;;;;;;;;;4893995;29;20060;-62
2022/02/27 01:17:29;;;;;;;13.25;4.38;;;;;;;;;;4864096;29;20056;-62
2022/02/27 01:20:05;;;;;;;15.32;5.10;;;;;;;;;;4875366;29;20069;-62
2022/02/27 01:22:37;;;;;;;13.90;5.82;;;;;;;;;;4875347;29;20059;-62
2022/02/27 01:25:09;;;;;;;13.43;5.40;;;;;;;;;;4856723;29;20430;-62
2022/02/27 01:27:41;;;;;;;10.57;5.20;;;;;;;;;;4847398;29;20065;-62
2022/02/27 01:30:11;;;;;;;13.45;5.72;;;;;;;;;;4820153;29;20062;-62
2022/02/27 01:32:45;;;;;;;8.65;4.97;;;;;;;;;;4820367;29;20424;-62
2022/02/27 01:35:17;;;;;;;11.15;5.10;;;;;;;;;;4820294;29;20168;-62
2022/02/27 01:37:48;;;;;;;14.15;5.57;;;;;;;;;;4804987;29;20061;-62
2022/02/27 01:40:18;;;;;;;12.32;4.50;;;;;;;;;;4819903;29;20393;-62
2022/02/27 01:42:50;;;;;;;10.13;4.22;;;;;;;;;;4820132;29;20050;-62
2022/02/27 01:45:22;;;;;;;9.25;4.40;;;;;;;;;;4819879;29;20046;-62
2022/02/27 01:47:53;;;;;;;9.52;4.22;;;;;;;;;;4843153;29;20068;-62
2022/02/27 01:50:24;;;;;;;;;;;;;;;;;;4868769;29;20522;-62
2022/02/27 01:52:53;;;;;;;10.50;3.47;;;;;;;;;;4841036;29;19924;-62
2022/02/27 01:55:24;;;;;;;10.15;3.78;;;;;;;;;;4856242;29;20087;-62
2022/02/27 01:57:55;;;;;;;11.05;4.45;;;;;;;;;;4871714;29;20426;-62
2022/02/27 02:00:28;;;;;;;11.27;4.60;;;;;;;;;;4847163;29;20055;-62
2022/02/27 02:03:02;;;;;;;13.80;5.15;;;;;;;;;;4867368;29;20067;-62
2022/02/27 02:05:33;;;;;;;9.80;4.50;;;;;;;;;;4881277;29;20542;-62
2022/02/27 02:08:05;;;;;;;11.73;4.47;;;;;;;;;;4881187;29;20514;-62
2022/02/27 02:10:41;;;;;;;9.50;4.28;;;;;;;;;;4881075;29;20064;-62
2022/02/27 02:13:12;;;;;;;10.57;4.65;;;;;;;;;;4880938;29;20057;-63
2022/02/27 02:15:45;;;;;;;9.65;4.45;;;;;;;;;;4862163;29;20057;-62
2022/02/27 02:18:20;;;;;;;10.48;4.15;;;;;;;;;;4880906;29;20049;-62
2022/02/27 02:20:56;;;;;;;10.73;4.45;;;;;;;;;;4863756;29;20053;-62
2022/02/27 02:23:28;;;;;;;8.27;4.28;;;;;;;;;;4868664;29;20591;-62
2022/02/27 02:26:03;;;;;;;12.43;4.85;;;;;;;;;;4899431;29;20056;-62
2022/02/27 02:28:36;;;;;;;10.73;4.90;;;;;;;;;;4899739;29;20064;-63
2022/02/27 02:31:08;;;;;;;10.68;4.10;;;;;;;;;;4913713;29;20452;-63
2022/02/27 02:33:42;;;;;;;9.93;4.40;;;;;;;;;;4918728;29;20060;-62
2022/02/27 02:36:12;;;;;;;9.93;4.13;;;;;;;;;;4918683;29;20654;-63
2022/02/27 02:38:48;;;;;;;8.88;3.95;;;;;;;;;;4918707;29;20048;-63
2022/02/27 02:41:23;;;;;;;13.38;3.95;;;;;;;;;;4899596;29;20733;-63
2022/02/27 02:43:59;;;;;;;10.15;4.32;;;;;;;;;;4880805;29;20053;-63
2022/02/27 02:46:31;;;;;;;9.27;4.25;;;;;;;;;;4881023;29;20392;-63
2022/02/27 02:49:05;;;;;;;10.55;4.18;;;;;;;;;;4899208;29;20053;-63
2022/02/27 02:51:43;;;;;;;8.77;3.75;;;;;;;;;;4865751;29;20065;-63
2022/02/27 02:54:15;;;;;;;11.27;4.35;;;;;;;;;;4849780;29;20053;-63
2022/02/27 02:56:45;;;;;;;12.98;4.43;;;;;;;;;;4893361;29;20067;-63
2022/02/27 02:59:17;;;;;;;14.35;4.72;;;;;;;;;;4899845;29;20072;-63
2022/02/27 03:01:51;;;;;;;;;;;;;;;;;;4885417;29;20073;-63
2022/02/27 03:04:24;;;;;;;9.20;4.88;;;;;;;;;;4911850;29;20406;-63
2022/02/27 03:06:54;;;;;;;14.15;4.50;;;;;;;;;;4902635;29;20063;-62
2022/02/27 03:09:25;;;;;;;12.95;4.40;;;;;;;;;;4918504;29;20412;-62
2022/02/27 03:11:56;;;;;;;15.15;4.95;;;;;;;;;;4918358;29;20109;-63
2022/02/27 03:14:28;;;;;;;11.25;4.63;;;;;;;;;;4915337;29;20060;-64
2022/02/27 03:16:59;;;;;;;13.23;4.78;;;;;;;;;;4915484;29;20056;-63
2022/02/27 03:19:35;;;;;;;9.35;4.28;;;;;;;;;;4929386;29;20063;-63
2022/02/27 03:22:09;;;;;;;11.70;4.32;;;;;;;;;;4947949;29;20051;-62
2022/02/27 03:24:40;;;;;;;12.63;5.35;;;;;;;;;;4921614;29;20052;-63
2022/02/27 03:27:10;;;;;;;12.35;4.30;;;;;;;;;;4953409;29;20055;-63
2022/02/27 03:29:44;;;;;;;8.25;3.80;;;;;;;;;;4953374;29;20059;-63
2022/02/27 03:32:18;;;;;;;10.60;4.65;;;;;;;;;;4980341;28;20050;-62
2022/02/27 03:34:51;;;;;;;9.25;4.70;;;;;;;;;;4977735;28;20050;-63
2022/02/27 03:37:21;;;;;;;12.13;4.82;;;;;;;;;;4968698;28;20640;-62
2022/02/27 03:39:53;;;;;;;12.80;5.03;;;;;;;;;;4980095;28;20053;-63
2022/02/27 03:42:25;;;;;;;11.73;4.95;;;;;;;;;;4952986;29;20123;-62
2022/02/27 03:44:59;;;;;;;10.68;4.80;;;;;;;;;;4933337;29;20067;-63
2022/02/27 03:47:31;;;;;;;10.15;4.88;;;;;;;;;;4934159;29;20066;-62
2022/02/27 03:50:01;;;;;;;9.27;4.28;;;;;;;;;;4917795;29;20059;-62
2022/02/27 03:52:31;;;;;;;10.13;4.00;;;;;;;;;;4933770;29;20407;-63
2022/02/27 03:55:05;;;;;;;8.93;3.80;;;;;;;;;;4933509;29;20162;-63
2022/02/27 03:57:36;;;;;;;9.15;4.03;;;;;;;;;;4914586;29;20052;-62
2022/02/27 04:00:09;;;;;;;8.50;4.38;;;;;;;;;;4914414;29;20075;-62
2022/02/27 04:02:46;;;;;;;11.60;4.55;;;;;;;;;;4914611;29;20177;-62
2022/02/27 04:05:18;;;;;;;10.05;4.70;;;;;;;;;;4883203;29;20067;-63
2022/02/27 04:07:51;;;;;;;9.85;4.97;;;;;;;;;;4914780;29;20417;-63
2022/02/27 04:10:22;;;;;;;10.30;4.65;;;;;;;;;;4914491;29;20060;-62
2022/02/27 04:12:59;;;;;;;15.35;4.40;;;;;;;;;;4914462;29;20060;-63
2022/02/27 04:15:34;;;;;;;10.95;4.80;;;;;;;;;;4919019;29;20056;-63
2022/02/27 04:18:05;;;;;;;9.88;4.95;;;;;;;;;;4895141;29;20448;-63
2022/02/27 04:20:35;;;;;;;14.00;4.85;;;;;;;;;;4909378;29;20056;-63
2022/02/27 04:23:05;;;;;;;13.82;4.88;;;;;;;;;;4928185;29;20059;-62
2022/02/27 04:25:36;;;;;;;11.77;4.70;;;;;;;;;;4885479;29;20056;-63
2022/02/27 04:28:09;;;;;;;16.00;5.05;;;;;;;;;;4886695;29;20062;-63
2022/02/27 04:30:39;;;;;;;13.68;5.20;;;;;;;;;;4895040;29;20064;-63
2022/02/27 04:33:11;;;;;;;12.88;4.97;;;;;;;;;;4895330;29;20068;-63
2022/02/27 04:35:43;;;;;;;21.02;4.65;;;;;;;;;;4907692;29;20059;-63
2022/02/27 04:38:14;;;;;;;11.13;5.20;;;;;;;;;;4913917;29;20074;-63
2022/02/27 04:40:46;;;;;;;10.82;5.13;;;;;;;;;;4913930;29;20056;-63
2022/02/27 04:43:16;;;;;;;12.00;4.97;;;;;;;;;;4897918;29;20445;-63
2022/02/27 04:45:46;;;;;;;10.38;4.20;;;;;;;;;;4898131;29;20456;-63
2022/02/27 04:48:16;;;;;;;15.98;4.53;;;;;;;;;;4913984;29;20063;-64
2022/02/27 04:50:48;;;;;;;8.13;4.38;;;;;;;;;;4925129;29;20060;-64
2022/02/27 04:53:19;;;;;;;9.70;4.05;;;;;;;;;;4932708;29;20062;-64
2022/02/27 04:55:49;;;;;;;8.75;4.22;;;;;;;;;;4952832;28;20054;-63
2022/02/27 04:58:23;;;;;;;11.70;4.50;;;;;;;;;;4971129;28;20055;-63
2022/02/27 05:00:55;;;;;;;16.90;4.70;;;;;;;;;;4970884;28;20069;-63
2022/02/27 05:03:28;;;;;;;8.73;4.20;;;;;;;;;;4925774;28;20055;-63
2022/02/27 05:05:57;;;;;;;10.80;4.53;;;;;;;;;;4970990;28;20467;-63
2022/02/27 05:08:31;;;;;;;9.23;3.88;;;;;;;;;;4949954;28;20506;-63
2022/02/27 05:11:05;;;;;;;9.13;3.60;;;;;;;;;;4927442;28;20053;-63
2022/02/27 05:13:38;;;;;;;11.95;4.18;;;;;;;;;;4951181;29;20132;-63
2022/02/27 05:16:08;;;;;;;10.95;4.05;;;;;;;;;;4951282;29;20058;-63
2022/02/27 05:18:41;;;;;;;8.80;3.80;;;;;;;;;;4920032;29;20882;-63
2022/02/27 05:21:13;;;;;;;9.18;4.10;;;;;;;;;;4919783;29;20051;-63
2022/02/27 05:23:47;;;;;;;7.45;4.00;;;;;;;;;;4951522;29;20056;-63
2022/02/27 05:26:19;;;;;;;7.05;3.70;;;;;;;;;;4935702;29;20055;-64
2022/02/27 05:28:50;;;;;;;12.57;4.63;;;;;;;;;;4881692;29;20075;-63
2022/02/27 05:31:24;;;;;;;8.57;3.42;;;;;;;;;;4912832;29;20073;-64
2022/02/27 05:33:56;;;;;;;6.18;3.45;;;;;;;;;;4912705;29;20091;-63
2022/02/27 05:36:26;;;;;;;12.93;4.07;;;;;;;;;;4911843;29;20072;-64
2022/02/27 05:38:58;;;;;;;9.63;3.63;;;;;;;;;;4913269;29;20555;-64
2022/02/27 05:41:29;;;;;;;11.55;3.45;;;;;;;;;;4897114;29;20063;-63
2022/02/27 05:44:01;;;;;;;7.72;3.42;;;;;;;;;;4913036;29;20448;-64
2022/02/27 05:46:32;;;;;;;7.00;3.35;;;;;;;;;;4912884;29;20067;-64
2022/02/27 05:49:02;;;;;;;9.05;2.83;;;;;;;;;;4912863;29;20052;-64
2022/02/27 05:51:33;;;;;;;7.50;3.28;;;;;;;;;;4937836;29;20066;-63
2022/02/27 05:54:07;;;;;;;8.68;3.65;;;;;;;;;;4950873;29;20055;-63
2022/02/27 05:56:37;;;;;;;13.25;3.78;;;;;;;;;;4950663;29;20043;-63
2022/02/27 05:59:09;;;;;;;9.15;3.55;;;;;;;;;;4951026;29;20067;-63
2022/02/27 06:01:41;;;;;;;9.68;3.58;;;;;;;;;;4950762;29;20052;-63
2022/02/27 06:04:16;;;;;;;7.82;3.42;;;;;;;;;;4950899;29;20172;-63
2022/02/27 06:06:46;;;;;;;9.65;3.13;;;;;;;;;;4988653;28;20437;-63
2022/02/27 06:09:18;;;;;;;8.25;3.45;;;;;;;;;;5011197;28;20046;-63
2022/02/27 06:11:50;;;;;;;10.65;3.70;;;;;;;;;;4969624;28;20062;-63
2022/02/27 06:14:22;;;;;;;10.52;3.38;;;;;;;;;;4969534;28;20442;-63
2022/02/27 06:16:53;;;;;;;14.70;3.65;;;;;;;;;;4970028;28;20415;-63
2022/02/27 06:19:26;;;;;;;9.13;3.25;;;;;;;;;;4970487;28;20058;-64
2022/02/27 06:21:58;;;;;;;8.30;2.97;;;;;;;;;;4953876;28;20437;-63
2022/02/27 06:24:30;;;;;;;5.50;2.88;;;;;;;;;;4954587;28;20063;-64
2022/02/27 06:27:04;;;;;;;6.43;3.22;;;;;;;;;;4969853;28;20565;-63
2022/02/27 06:29:35;;;;;;;6.90;3.17;;;;;;;;;;4931553;29;20071;-64
2022/02/27 06:32:12;;;;;;;8.73;3.15;;;;;;;;;;4931253;29;20067;-63
2022/02/27 06:34:42;;;;;;;7.97;3.00;;;;;;;;;;4915291;29;20063;-64
2022/02/27 06:37:12;;;;;;;11.63;3.38;;;;;;;;;;4931094;29;20067;-63
2022/02/27 06:39:44;;;;;;;7.38;3.40;;;;;;;;;;4931439;29;20055;-63
2022/02/27 06:42:19;;;;;;;8.07;3.05;;;;;;;;;;4931555;29;20063;-63
2022/02/27 06:44:49;;;;;;;11.65;3.42;;;;;;;;;;4899727;29;20059;-63
2022/02/27 06:47:19;;;;;;;9.63;3.22;;;;;;;;;;4916147;29;20062;-63
2022/02/27 06:49:50;;;;;;;11.38;3.35;;;;;;;;;;4944886;28;20055;-64
2022/02/27 06:52:22;;;;;;;8.15;3.10;;;;;;;;;;4973299;28;20574;-64
2022/02/27 06:54:54;;;;;;;7.85;2.80;;;;;;;;;;4973167;28;20070;-63
2022/02/27 06:57:26;;;;;;;9.07;3.08;;;;;;;;;;4973267;28;20534;-63
2022/02/27 06:59:56;;;;;;;8.25;3.03;;;;;;;;;;4973564;28;20488;-64
2022/02/27 07:02:28;;;;;;;7.45;3.70;;;;;;;;;;4957700;28;20082;-64
2022/02/27 07:05:23;;;;;;;9.45;2.92;;;;;;;;;;4973429;28;20046;-64
2022/02/27 07:07:57;;;;;;;7.63;2.60;;;;;;;;;;4973243;28;20058;-64
2022/02/27 07:10:27;;;;;;;6.05;2.67;;;;;;;;;;4968400;28;20498;-64
2022/02/27 07:13:03;;;;;;;5.13;2.72;;;;;;;;;;4940623;28;20522;-63
2022/02/27 07:15:36;;;;;;;9.50;2.70;;;;;;;;;;4972925;28;20062;-64
2022/02/27 07:18:09;;;;;;;4.80;2.50;;;;;;;;;;4941559;28;20055;-63
2022/02/27 07:20:39;;;;;;;8.88;2.83;;;;;;;;;;4956624;28;20080;-63
2022/02/27 07:23:11;;;;;;;5.25;2.40;;;;;;;;;;4973004;28;20525;-64
2022/02/27 07:25:44;;;;;;;11.25;2.72;;;;;;;;;;4972862;28;20059;-63
2022/02/27 07:28:14;;;;;;;5.22;2.28;;;;;;;;;;4941049;28;20430;-63
2022/02/27 07:30:44;;;;;;;11.73;2.63;;;;;;;;;;4956921;28;20055;-63
2022/02/27 07:33:20;;;;;;;7.20;2.40;;;;;;;;;;4972734;28;20047;-64
2022/02/27 07:35:53;;;;;;;5.82;2.65;;;;;;;;;;4972538;28;20058;-64
2022/02/27 07:38:24;;;;;;;5.85;2.42;;;;;;;;;;4972558;28;20051;-63
2022/02/27 07:40:54;;;;;;;11.40;2.65;;;;;;;;;;4947360;28;20517;-63
2022/02/27 07:43:24;;;;;;;6.88;2.53;;;;;;;;;;4997442;28;20053;-63
2022/02/27 07:45:55;;;;;;;6.55;2.70;;;;;;;;;;5013986;28;20045;-63
2022/02/27 07:48:28;;;;;;;8.88;2.70;;;;;;;;;;5013907;28;20046;-64
2022/02/27 07:50:58;;;;;;;5.32;2.70;;;;;;;;;;4996602;28;20057;-63
2022/02/27 07:53:29;;;;;;;16.48;3.25;;;;;;;;;;4991497;28;20051;-64
2022/02/27 07:56:00;;;;;;;6.30;2.70;;;;;;;;;;4991666;28;20069;-63
2022/02/27 07:58:33;;;;;;;9.75;2.63;;;;;;;;;;4960862;28;20050;-63
2022/02/27 08:01:03;;;;;;;12.23;2.95;;;;;;;;;;4990970;28;20054;-64
2022/02/27 08:03:37;;;;;;;10.73;2.60;;;;;;;;;;4939663;28;20455;-63
2022/02/27 08:06:09;;;;;;;9.35;2.83;;;;;;;;;;4972080;28;20063;-63
2022/02/27 08:08:41;;;;;;;5.75;2.63;;;;;;;;;;4972042;28;20066;-63
2022/02/27 08:11:12;;;;;;;5.53;2.70;;;;;;;;;;4956099;28;20049;-64
2022/02/27 08:13:46;;;;;;;7.82;2.88;;;;;;;;;;4971811;28;20396;-64
2022/02/27 08:16:18;;;;;;;5.45;2.80;;;;;;;;;;4971877;28;20462;-63
2022/02/27 08:18:49;;;;;;;5.28;2.70;;;;;;;;;;4971829;28;20398;-63
2022/02/27 08:21:21;;;;;;;13.30;2.40;;;;;;;;;;4971655;28;20091;-64
2022/02/27 08:23:56;;;;;;;11.07;2.50;;;;;;;;;;4955613;28;20080;-64
2022/02/27 08:26:28;;;;;;;14.00;2.80;;;;;;;;;;4939758;28;20507;-63
2022/02/27 08:29:02;;;;;;;6.03;2.72;;;;;;;;;;4956286;28;20070;-63
2022/02/27 08:31:39;;;;;;;9.60;2.35;;;;;;;;;;4971563;28;20150;-63
2022/02/27 08:34:14;;;;;;;6.25;2.42;;;;;;;;;;4983342;28;20077;-64
2022/02/27 08:36:49;;;;;;;3.60;2.13;;;;;;;;;;4962156;28;20057;-63
2022/02/27 08:39:24;;;;;;;10.48;2.88;;;;;;;;;;5012373;28;20398;-63
2022/02/27 08:41:54;;;;;;;5.32;2.60;;;;;;;;;;4995828;28;20049;-63
2022/02/27 08:44:28;;;;;;;5.80;2.50;;;;;;;;;;4995835;28;20042;-63
2022/02/27 08:47:01;;;;;;;8.43;2.65;;;;;;;;;;4995674;28;20042;-64
2022/02/27 08:49:34;;;;;;;9.68;2.92;;;;;;;;;;4995546;28;20053;-63
2022/02/27 08:52:05;;;;;;;6.45;2.40;;;;;;;;;;5012865;28;20057;-64
2022/02/27 08:54:37;;;;;;;;;;;;;;;;;;5012865;28;20061;-64
2022/02/27 08:57:08;;;;;;;7.90;3.05;;;;;;;;;;5012421;28;19922;-63
2022/02/27 08:59:40;;;;;;;6.30;2.70;;;;;;;;;;5012067;28;20049;-63
2022/02/27 09:02:10;;;;;;;7.25;2.72;;;;;;;;;;5012405;28;20045;-63
2022/02/27 09:04:45;;;;;;;6.72;2.92;;;;;;;;;;4978122;28;20552;-63
2022/02/27 09:07:15;;;;;;;7.03;2.60;;;;;;;;;;5012350;28;20394;-63
2022/02/27 09:09:48;;;;;;;8.20;2.88;;;;;;;;;;5012066;28;20065;-63
2022/02/27 09:12:18;;;;;;;10.23;2.95;;;;;;;;;;5012235;28;20042;-63
2022/02/27 09:14:50;;;;;;;6.45;2.55;;;;;;;;;;4938211;28;20058;-63
2022/02/27 09:17:27;;;;;;;10.80;3.30;;;;;;;;;;4970519;28;20411;-63
2022/02/27 09:19:57;;;;;;;11.05;3.60;;;;;;;;;;4970525;28;20066;-63
2022/02/27 09:22:27;;;;;;;7.43;3.97;;;;;;;;;;4970748;28;20062;-63
2022/02/27 09:24:58;;;;;;;14.40;4.60;;;;;;;;;;4970684;28;20050;-63
2022/02/27 09:27:29;;;;;;;12.32;4.82;;;;;;;;;;4970625;28;20051;-63
2022/02/27 09:29:59;;;;;;;10.75;4.18;;;;;;;;;;4954918;28;20085;-63
2022/02/27 09:32:29;;;;;;;7.40;3.95;;;;;;;;;;4939119;28;20046;-63
2022/02/27 09:35:04;;;;;;;9.25;3.90;;;;;;;;;;4970576;28;20066;-63
2022/02/27 09:37:37;;;;;;;12.25;4.03;;;;;;;;;;4938249;28;20062;-63
2022/02/27 09:40:10;;;;;;;12.68;4.00;;;;;;;;;;4970210;28;20055;-63
2022/02/27 09:42:43;;;;;;;10.45;4.60;;;;;;;;;;4951126;29;20522;-63
2022/02/27 09:45:15;;;;;;;9.02;3.80;;;;;;;;;;4942543;28;20499;-63
2022/02/27 09:47:53;;;;;;;9.20;4.68;;;;;;;;;;4989682;28;20058;-63
2022/02/27 09:50:26;;;;;;;8.18;4.22;;;;;;;;;;4950846;29;20050;-63
2022/02/27 09:52:58;;;;;;;10.93;4.80;;;;;;;;;;4951013;29;20064;-63
2022/02/27 09:55:28;;;;;;;7.93;4.43;;;;;;;;;;4950681;29;20066;-63
2022/02/27 09:58:00;;;;;;;13.02;3.85;;;;;;;;;;4950830;29;20047;-63
2022/02/27 10:00:33;;;;;;;10.13;3.80;;;;;;;;;;4950593;29;20463;-63
2022/02/27 10:03:16;;;;;;;11.00;3.58;;;;;;;;;;4950784;29;20680;-63
2022/02/27 10:05:48;;;;;;;7.35;3.13;;;;;;;;;;4935284;29;20056;-63
2022/02/27 10:08:18;;;;;;;6.75;3.17;;;;;;;;;;4915333;29;20166;-63
2022/02/27 10:10:57;;;;;;;5.97;3.30;;;;;;;;;;4931723;29;20052;-63
2022/02/27 10:13:35;;;;;;;6.00;3.13;;;;;;;;;;4931539;29;20067;-63
2022/02/27 10:16:13;;;;;;;6.60;3.35;;;;;;;;;;4877882;29;20041;-63
2022/02/27 10:18:56;;;;;;;9.00;3.45;;;;;;;;;;4877939;29;20524;-63
2022/02/27 10:21:39;;;;;;;6.93;2.85;;;;;;;;;;4903902;29;20054;-63
2022/02/27 10:24:20;;;;;;;7.63;3.03;;;;;;;;;;4922944;29;20075;-63
2022/02/27 10:26:51;;;;;;;8.02;2.83;;;;;;;;;;4935194;29;20059;-63
2022/02/27 10:29:27;;;;;;;5.53;2.92;;;;;;;;;;4935265;29;20067;-63
2022/02/27 10:32:03;;;;;;;9.10;3.67;;;;;;;;;;4935191;29;20052;-63
2022/02/27 10:34:36;;;;;;;9.95;3.13;;;;;;;;;;4935139;29;20070;-63
2022/02/27 10:37:16;;;;;;;7.55;2.60;;;;;;;;;;4935230;29;20209;-63
2022/02/27 10:39:53;;;;;;;6.57;2.83;;;;;;;;;;4935246;29;20056;-63
2022/02/27 10:42:30;;;;;;;8.57;2.70;;;;;;;;;;4935063;29;20133;-63
2022/02/27 10:45:06;;;;;;;12.48;2.90;;;;;;;;;;4935102;29;20059;-63
2022/02/27 10:47:38;;;;;;;7.07;2.88;;;;;;;;;;4919362;29;20386;-63
2022/02/27 10:50:14;;;;;;;9.35;3.42;;;;;;;;;;4935170;29;20052;-63
2022/02/27 10:52:46;;;;;;;8.75;3.08;;;;;;;;;;4937889;28;20060;-63
2022/02/27 10:55:18;;;;;;;5.72;3.22;;;;;;;;;;4973418;28;20053;-63
2022/02/27 10:57:50;;;;;;;5.97;2.80;;;;;;;;;;4957319;28;20055;-63
2022/02/27 11:00:29;;;;;;;6.07;3.03;;;;;;;;;;4923127;29;20431;-64
2022/02/27 11:03:10;;;;;;;6.20;3.03;;;;;;;;;;4907284;29;20063;-64
2022/02/27 11:05:44;;;;;;;6.20;2.60;;;;;;;;;;4973360;28;20058;-64
2022/02/27 11:08:14;;;;;;;7.40;2.33;;;;;;;;;;4997322;28;20046;-64
2022/02/27 11:10:54;;;;;;;4.25;2.38;;;;;;;;;;4964863;28;20080;-64
2022/02/27 11:13:29;;;;;;;3.15;1.83;;;;;;;;;;5014267;28;20049;-64
2022/02/27 11:16:03;;;;;;;6.60;2.55;;;;;;;;;;4988693;28;20050;-64
2022/02/27 11:18:35;;;;;;;5.43;1.70;;;;;;;;;;4941186;28;20074;-63
2022/02/27 11:21:10;;;;;;;5.97;1.95;;;;;;;;;;4972686;28;20054;-64
2022/02/27 11:23:44;;;;;;;4.18;2.22;;;;;;;;;;4957164;28;20568;-64
2022/02/27 11:26:18;;;;;;;3.70;1.80;;;;;;;;;;4957030;28;20091;-63
2022/02/27 11:28:51;;;;;;;4.55;1.90;;;;;;;;;;4972951;28;20475;-64
2022/02/27 11:31:24;;;;;;;9.27;2.30;;;;;;;;;;4988798;28;20395;-64
2022/02/27 11:34:14;;;;;;;3.88;1.65;;;;;;;;;;4971440;28;20075;-64
2022/02/27 11:36:51;;;;;;;5.95;1.83;;;;;;;;;;4956564;28;20055;-64
2022/02/27 11:42:14;;;;;;;3.35;1.98;;;;;;;;;;4972583;28;20046;-64
2022/02/27 11:44:45;;;;;;;6.38;2.85;;;;;;;;;;4926649;28;20400;-64
2022/02/27 11:47:17;;;;;;;3.90;2.17;;;;;;;;;;4972439;28;20066;-64
2022/02/27 11:49:47;;;;;;;17.02;8.90;;;;;;;;;;4972299;28;20077;-64
2022/02/27 11:52:35;;;;;;;9.60;4.75;;;;;;;;;;4972316;28;20061;-63
2022/02/27 11:55:11;;;;;;;5.05;2.17;;;;;;;;;;5013352;28;20064;-63
2022/02/27 11:57:44;;;;;;;4.22;2.28;;;;;;;;;;5013439;28;20046;-63
2022/02/27 12:00:18;;;;;;;4.22;2.10;;;;;;;;;;4963616;28;20061;-63
2022/02/27 12:02:53;;;;;;;4.63;1.92;;;;;;;;;;5013502;28;20065;-63
2022/02/27 12:05:44;;;;;;;3.92;2.03;;;;;;;;;;4979318;28;20054;-63
2022/02/27 12:08:16;;;;;;;4.43;2.10;;;;;;;;;;4978525;28;20053;-63
2022/02/27 12:10:53;;;;;;;5.10;2.00;;;;;;;;;;5013550;28;20042;-63
2022/02/27 12:13:59;;;;;;;3.50;1.77;;;;;;;;;;4986462;28;20471;-63
2022/02/27 12:16:42;;;;;;;3.22;1.80;;;;;;;;;;5008656;28;20042;-63
2022/02/27 12:19:23;;;;;;;5.43;2.10;;;;;;;;;;5004228;28;20117;-63
2022/02/27 12:21:57;;;;;;;4.07;1.70;;;;;;;;;;4980690;28;20060;-63
2022/02/27 12:24:34;;;;;;;5.40;1.90;;;;;;;;;;5031181;28;20057;-63
2022/02/27 12:27:07;;;;;;;5.28;1.65;;;;;;;;;;5031814;28;20041;-63
2022/02/27 12:29:48;;;;;;;4.28;1.98;;;;;;;;;;4982927;28;20065;-63
2022/02/27 12:32:23;;;;;;;4.82;2.10;;;;;;;;;;5031279;28;20082;-63
2022/02/27 12:34:58;;;;;;;3.30;1.75;;;;;;;;;;5032066;28;20401;-63
2022/02/27 12:37:33;;;;;;;5.85;1.60;;;;;;;;;;5031486;28;20402;-63
2022/02/27 12:40:06;;;;;;;3.20;1.70;;;;;;;;;;5031256;28;20037;-63
2022/02/27 12:42:36;;;;;;;4.20;1.90;;;;;;;;;;4982283;28;20049;-63
2022/02/27 12:45:07;;;;;;;4.78;1.90;;;;;;;;;;5031078;28;20049;-63
2022/02/27 12:47:42;;;;;;;5.65;1.92;;;;;;;;;;5031168;28;20053;-63
2022/02/27 12:50:21;;;;;;;3.10;1.83;;;;;;;;;;4989281;28;20054;-62
2022/02/27 12:52:56;;;;;;;3.13;1.58;;;;;;;;;;4970181;28;20077;-63
2022/02/27 12:55:29;;;;;;;3.88;2.20;;;;;;;;;;4911929;29;20052;-63
2022/02/27 12:58:05;;;;;;;7.65;3.70;;;;;;;;;;4880370;29;20067;-63
2022/02/27 13:00:44;;;;;;;6.30;2.25;;;;;;;;;;4910175;29;20060;-63
2022/02/27 13:03:18;;;;;;;3.88;2.00;;;;;;;;;;4912454;29;20056;-63
2022/02/27 13:06:02;;;;;;;3.60;2.15;;;;;;;;;;4911764;29;20068;-63
2022/02/27 13:08:49;;;;;;;3.75;2.17;;;;;;;;;;4912432;29;20060;-63
2022/02/27 13:11:58;;;;;;;3.20;1.83;;;;;;;;;;4912695;29;20060;-63
2022/02/27 13:14:30;;;;;;;3.30;1.92;;;;;;;;;;4874500;29;20061;-63
2022/02/27 13:17:03;;;;;;;4.25;2.00;;;;;;;;;;4873414;29;20064;-63
2022/02/27 13:19:38;;;;;;;2.80;1.85;;;;;;;;;;4872781;29;20061;-63
2022/02/27 13:22:22;;;;;;;3.03;2.00;;;;;;;;;;4868402;29;20064;-63
2022/02/27 13:24:57;;;;;;;3.75;1.85;;;;;;;;;;4872954;29;20065;-63
2022/02/27 13:27:34;;;;;;;5.10;2.42;;;;;;;;;;4844801;29;20060;-63
2022/02/27 13:30:18;;;;;;;3.58;1.90;;;;;;;;;;4875576;29;20417;-63
2022/02/27 13:32:51;;;;;;;11.45;1.85;;;;;;;;;;4907159;29;20052;-63
2022/02/27 13:35:27;;;;;;;4.60;1.73;;;;;;;;;;4901355;29;20457;-63
2022/02/27 13:38:03;;;;;;;3.63;1.60;;;;;;;;;;4931695;29;20070;-64
2022/02/27 13:40:41;;;;;;;3.03;1.70;;;;;;;;;;4916555;29;20062;-63
2022/02/27 13:43:22;;;;;;;5.72;1.80;;;;;;;;;;4916981;29;20492;-63
2022/02/27 13:46:06;;;;;;;3.80;1.85;;;;;;;;;;4960906;28;20050;-64
2022/02/27 13:48:38;;;;;;;3.42;1.55;;;;;;;;;;4970288;28;20054;-64
2022/02/27 13:51:09;;;;;;;3.45;1.90;;;;;;;;;;4902938;29;20640;-64
2022/02/27 13:53:43;;;;;;;3.25;2.30;;;;;;;;;;4950882;29;20059;-63
2022/02/27 13:56:14;;;;;;;4.72;2.03;;;;;;;;;;4934513;29;20416;-64
2022/02/27 13:58:46;;;;;;;4.43;1.77;;;;;;;;;;4951354;28;20062;-63
2022/02/27 14:01:21;;;;;;;3.92;1.90;;;;;;;;;;4989431;28;20518;-62
2022/02/27 14:03:52;;;;;;;6.10;4.10;;;;;;;;;;4989581;28;20058;-63
2022/02/27 14:06:33;;;;;;;6.00;2.13;;;;;;;;;;4989117;28;20057;-64
2022/02/27 14:09:15;;;;;;;6.03;2.50;;;;;;;;;;4989373;28;20061;-63
2022/02/27 14:11:48;;;;;;;2.85;1.70;;;;;;;;;;4989315;28;20190;-63
2022/02/27 14:14:25;;;;;;;3.53;1.75;;;;;;;;;;4989421;28;20530;-63
2022/02/27 14:16:55;;;;;;;3.28;1.70;;;;;;;;;;4989048;28;20057;-63
2022/02/27 14:19:28;;;;;;;5.60;2.33;;;;;;;;;;4941542;28;20042;-63
2022/02/27 14:22:12;;;;;;;6.07;1.90;;;;;;;;;;4989446;28;20065;-63
2022/02/27 14:24:49;;;;;;;6.10;1.95;;;;;;;;;;4972907;28;20050;-63
2022/02/27 14:27:21;;;;;;;4.40;1.85;;;;;;;;;;4989005;28;20061;-64
2022/02/27 14:29:55;;;;;;;3.63;2.13;;;;;;;;;;4989274;28;20054;-63
2022/02/27 14:32:33;;;;;;;3.30;1.80;;;;;;;;;;4989326;28;20085;-63
2022/02/27 14:35:07;;;;;;;2.75;1.80;;;;;;;;;;4989188;28;20046;-63
2022/02/27 14:37:37;;;;;;;4.28;1.75;;;;;;;;;;4989054;28;20062;-64
2022/02/27 14:40:11;;;;;;;4.10;1.90;;;;;;;;;;4973528;28;20061;-63
2022/02/27 14:42:42;;;;;;;3.38;1.95;;;;;;;;;;4956825;28;20058;-64
2022/02/27 14:45:13;;;;;;;4.10;1.73;;;;;;;;;;4972548;28;20051;-63
2022/02/27 14:47:43;;;;;;;2.97;1.67;;;;;;;;;;4989272;28;20050;-63
2022/02/27 14:50:17;;;;;;;2.97;1.90;;;;;;;;;;4972604;28;20065;-64
2022/02/27 14:52:47;;;;;;;2.75;1.95;;;;;;;;;;4956983;28;20080;-64
2022/02/27 14:55:20;;;;;;;3.63;1.90;;;;;;;;;;4973533;28;20043;-64
2022/02/27 14:57:51;;;;;;;3.95;1.73;;;;;;;;;;4989202;28;20066;-64
2022/02/27 15:00:23;;;;;;;2.85;1.67;;;;;;;;;;4956456;28;20062;-63
2022/02/27 15:02:56;;;;;;;4.18;1.90;;;;;;;;;;4989346;28;20069;-64
2022/02/27 15:05:27;;;;;;;5.05;1.95;;;;;;;;;;4984041;28;20505;-63
2022/02/27 15:07:59;;;;;;;4.45;1.88;;;;;;;;;;4942548;28;20050;-63
2022/02/27 15:10:35;;;;;;;5.55;2.00;;;;;;;;;;4897600;28;20054;-64
2022/02/27 15:13:07;;;;;;;5.22;1.73;;;;;;;;;;4992372;28;20540;-64
2022/02/27 15:15:37;;;;;;;3.65;1.80;;;;;;;;;;4976423;28;20050;-61
2022/02/27 15:18:10;;;;;;;3.25;1.70;;;;;;;;;;4992539;28;20054;-61
2022/02/27 15:20:48;;;;;;;2.70;1.73;;;;;;;;;;4992229;28;20058;-61